Hack, New Jersey
Current Conditions -  °F | °C
As of 4:51 AM on Friday 19 Dec 2014 (Local Time) from KTEB Reporting Station
Overcast Overcast  
Wind Chill: 31°   Ceiling: 3600
Heat Index: 37°   Visibility: 10mi
Dew Point: 23°   Wind: 8mph
Humidity: 57%   Direction: 310°NW
Pressure: 29.97"   Gusts: NA
Location:  40.8892°N, 74.0466°W
Report Text: KTEB 190951Z 31007KT 10SM OVC036 03/M05 A2997 RMK AO2 SLP150 T00281050
Loading
Personal Weather Stations






























Interactive Weather Map New forecast layout! Learn more

10-Day Weather Forecast

Advertisements
Track Severe Weather on mobile